createdAt,value
2018-09-19T00:01:15.657Z,19.90
2018-09-19T00:07:20.268Z,19.90
2018-09-19T00:13:24.971Z,19.70
2018-09-19T00:19:29.603Z,19.80
2018-09-19T00:25:34.260Z,19.70
2018-09-19T00:31:38.808Z,19.60
2018-09-19T00:37:43.375Z,19.60
2018-09-19T00:43:47.987Z,19.50
2018-09-19T00:49:53.598Z,19.30
2018-09-19T00:55:58.239Z,19.20
2018-09-19T01:02:02.831Z,19.10
2018-09-19T01:08:07.434Z,19.00
2018-09-19T01:14:12.017Z,19.00
2018-09-19T01:20:16.888Z,18.90
2018-09-19T01:26:21.512Z,18.90
2018-09-19T01:32:26.453Z,18.90
2018-09-19T01:38:31.887Z,18.70
2018-09-19T01:44:36.472Z,18.50
2018-09-19T01:50:41.355Z,18.50
2018-09-19T01:56:45.963Z,18.30
2018-09-19T02:02:50.830Z,18.30
2018-09-19T02:08:55.424Z,18.20
2018-09-19T02:15:00.007Z,18.00
2018-09-19T02:21:04.633Z,17.80
2018-09-19T02:27:09.215Z,17.80
2018-09-19T02:33:13.790Z,17.80
2018-09-19T02:39:18.395Z,17.70
2018-09-19T02:45:23.023Z,17.60
2018-09-19T02:51:28.009Z,17.50
2018-09-19T02:57:32.639Z,17.50
2018-09-19T03:03:37.205Z,17.50
2018-09-19T03:09:41.762Z,17.40
2018-09-19T03:15:46.330Z,17.30
2018-09-19T03:21:50.930Z,17.10
2018-09-19T03:27:55.491Z,17.10
2018-09-19T03:34:00.498Z,17.00
2018-09-19T03:40:05.144Z,16.90
2018-09-19T03:46:09.710Z,16.80
2018-09-19T03:52:14.300Z,16.80
2018-09-19T03:58:18.940Z,16.60
2018-09-19T04:04:23.514Z,16.60
2018-09-19T04:10:28.087Z,16.50
2018-09-19T04:16:32.635Z,16.50
2018-09-19T04:22:37.277Z,16.60
2018-09-19T04:28:42.147Z,16.50
2018-09-19T04:34:46.762Z,16.40
2018-09-19T04:40:51.379Z,16.30
2018-09-19T04:46:55.962Z,16.30
2018-09-19T04:53:00.563Z,16.10
2018-09-19T04:59:05.246Z,16.00
2018-09-19T05:05:09.876Z,15.70
2018-09-19T05:11:14.465Z,15.50
2018-09-19T05:17:19.059Z,15.40
2018-09-19T05:23:23.643Z,15.40
2018-09-19T05:29:28.189Z,15.60
2018-09-19T05:35:32.804Z,15.80
2018-09-19T05:41:37.440Z,15.90
2018-09-19T05:47:42.060Z,15.90
2018-09-19T05:53:46.654Z,15.80
2018-09-19T05:59:51.375Z,15.70
2018-09-19T06:05:55.992Z,15.70
2018-09-19T06:12:00.563Z,15.70
2018-09-19T06:18:05.178Z,15.80
2018-09-19T06:24:09.767Z,15.90
2018-09-19T06:30:14.353Z,16.10
2018-09-19T06:36:19.013Z,16.30
2018-09-19T06:42:23.615Z,16.40
2018-09-19T06:48:28.176Z,16.60
2018-09-19T06:54:32.764Z,17.00
2018-09-19T07:00:37.382Z,19.00
2018-09-19T07:06:42.312Z,21.50
2018-09-19T07:12:47.361Z,23.30
2018-09-19T07:18:52.034Z,25.40
2018-09-19T07:24:56.957Z,26.40
2018-09-19T07:31:01.636Z,25.30
2018-09-19T07:37:06.245Z,23.70
2018-09-19T07:43:10.857Z,23.00
2018-09-19T07:49:15.475Z,22.60
2018-09-19T07:55:20.098Z,22.50
2018-09-19T08:01:24.671Z,22.50
2018-09-19T08:07:29.266Z,22.50
2018-09-19T08:13:33.866Z,22.70
2018-09-19T08:19:38.598Z,23.20
2018-09-19T08:25:43.202Z,23.80
2018-09-19T08:31:47.750Z,24.40
2018-09-19T08:37:52.347Z,25.00
2018-09-19T08:43:56.944Z,26.10
2018-09-19T08:50:01.520Z,27.10
2018-09-19T08:56:06.151Z,28.00
2018-09-19T09:02:10.765Z,29.20
2018-09-19T09:08:15.391Z,30.20
2018-09-19T09:14:20.011Z,31.00
2018-09-19T09:20:24.583Z,31.20
2018-09-19T09:26:29.170Z,32.50
2018-09-19T09:32:33.724Z,33.70
2018-09-19T09:38:38.329Z,33.30
2018-09-19T09:44:42.958Z,33.90
2018-09-19T09:50:47.554Z,34.10
2018-09-19T09:56:52.508Z,35.30
2018-09-19T10:02:57.084Z,34.90
2018-09-19T10:09:01.677Z,35.00
2018-09-19T10:15:06.701Z,34.20
2018-09-19T10:21:11.347Z,34.30
2018-09-19T10:27:15.965Z,34.40
2018-09-19T10:33:20.564Z,35.40
2018-09-19T10:39:25.155Z,35.90
2018-09-19T10:45:29.792Z,35.80
2018-09-19T10:51:34.365Z,36.20
2018-09-19T10:57:38.983Z,36.30
2018-09-19T11:03:43.565Z,36.30
2018-09-19T11:09:48.187Z,35.50
2018-09-19T11:15:52.764Z,36.00
2018-09-19T11:21:57.378Z,34.80
2018-09-19T11:28:01.981Z,34.00
2018-09-19T11:34:06.588Z,34.70
2018-09-19T11:40:11.193Z,35.20
2018-09-19T11:46:15.772Z,36.00
2018-09-19T11:52:20.349Z,36.10
2018-09-19T11:58:24.912Z,34.40
2018-09-19T12:04:29.481Z,32.80
2018-09-19T12:10:34.065Z,32.20
2018-09-19T12:16:39.085Z,32.50
2018-09-19T12:22:43.648Z,32.40
2018-09-19T12:28:48.235Z,31.70
2018-09-19T12:34:52.826Z,31.90
2018-09-19T12:40:57.449Z,31.60
2018-09-19T12:47:02.052Z,31.50
2018-09-19T12:53:06.621Z,31.60
2018-09-19T12:59:11.238Z,31.30
2018-09-19T13:05:15.846Z,31.70
2018-09-19T13:11:20.809Z,32.20
2018-09-19T13:17:25.341Z,32.10
2018-09-19T13:23:29.896Z,32.90
2018-09-19T13:29:34.487Z,32.60
2018-09-19T13:35:39.046Z,32.10
2018-09-19T13:41:43.636Z,33.30
2018-09-19T13:47:48.492Z,34.10
2018-09-19T13:53:53.258Z,33.10
2018-09-19T13:59:58.418Z,34.20
2018-09-19T14:06:03.006Z,34.50
2018-09-19T14:12:07.696Z,35.40
2018-09-19T14:18:12.545Z,34.60
2018-09-19T14:24:17.229Z,33.20
2018-09-19T14:30:21.854Z,31.90
2018-09-19T14:36:26.439Z,31.40
2018-09-19T14:42:31.017Z,32.10
2018-09-19T14:48:35.624Z,31.40
2018-09-19T14:54:40.205Z,32.50
2018-09-19T15:00:45.100Z,32.60
2018-09-19T15:06:49.734Z,32.80
2018-09-19T15:12:54.669Z,33.70
2018-09-19T15:18:59.279Z,33.20
2018-09-19T15:25:03.888Z,32.50
2018-09-19T15:31:08.853Z,32.10
2018-09-19T15:37:13.422Z,32.60
2018-09-19T15:43:17.953Z,32.20
2018-09-19T15:49:22.537Z,32.30
2018-09-19T15:55:27.162Z,32.60
2018-09-19T16:01:32.104Z,32.60
2018-09-19T16:07:36.750Z,32.70
2018-09-19T16:13:41.354Z,33.00
2018-09-19T16:19:45.991Z,32.60
2018-09-19T16:25:50.584Z,32.90
2018-09-19T16:31:55.185Z,33.50
2018-09-19T16:37:59.816Z,32.60
2018-09-19T16:44:04.547Z,31.90
2018-09-19T16:50:09.230Z,31.60
2018-09-19T16:56:13.843Z,31.20
2018-09-19T17:02:18.421Z,30.50
2018-09-19T17:08:22.974Z,30.20
2018-09-19T17:14:27.585Z,29.30
2018-09-19T17:20:32.154Z,28.30
2018-09-19T17:26:36.827Z,27.60
2018-09-19T17:32:41.455Z,26.90
2018-09-19T17:38:46.111Z,26.50
2018-09-19T17:44:50.753Z,26.20
2018-09-19T17:50:55.665Z,25.90
2018-09-19T17:57:00.338Z,25.60
2018-09-19T18:03:04.934Z,25.20
2018-09-19T18:09:09.557Z,24.80
2018-09-19T18:15:14.089Z,24.50
2018-09-19T18:21:18.709Z,24.20
2018-09-19T18:27:23.288Z,24.00
2018-09-19T18:33:27.841Z,23.80
2018-09-19T18:39:32.449Z,23.60
2018-09-19T18:45:37.049Z,23.50
2018-09-19T18:51:41.666Z,23.40
2018-09-19T18:57:46.242Z,23.20
2018-09-19T19:03:50.848Z,23.10
2018-09-19T19:09:55.440Z,23.00
2018-09-19T19:16:00.017Z,22.90
2018-09-19T19:22:04.605Z,23.00
2018-09-19T19:28:09.238Z,22.90
2018-09-19T19:34:13.796Z,22.80
2018-09-19T19:40:18.388Z,22.60
2018-09-19T19:46:22.946Z,22.50
2018-09-19T19:52:27.546Z,22.40
2018-09-19T19:58:32.173Z,22.40
2018-09-19T20:04:36.853Z,22.20
2018-09-19T20:10:41.545Z,22.20
2018-09-19T20:16:46.185Z,22.10
2018-09-19T20:22:50.871Z,22.10
2018-09-19T20:28:55.479Z,22.20
2018-09-19T20:35:00.142Z,22.20
2018-09-19T20:41:04.835Z,22.10
2018-09-19T20:47:09.515Z,22.00
2018-09-19T20:53:14.247Z,22.00
2018-09-19T20:59:18.932Z,22.00
2018-09-19T21:05:23.622Z,21.90
2018-09-19T21:11:28.687Z,21.80
2018-09-19T21:17:33.351Z,21.70
2018-09-19T21:23:38.062Z,21.60
2018-09-19T21:29:42.774Z,21.60
2018-09-19T21:35:47.413Z,21.60
2018-09-19T21:41:52.005Z,21.40
2018-09-19T21:47:56.603Z,21.20
2018-09-19T21:54:01.196Z,21.10
2018-09-19T22:00:07.470Z,20.90
2018-09-19T22:06:12.080Z,20.70
2018-09-19T22:12:16.747Z,20.60
2018-09-19T22:18:21.329Z,20.40
2018-09-19T22:24:25.902Z,20.20
2018-09-19T22:30:30.437Z,20.10
2018-09-19T22:36:35.371Z,20.10
2018-09-19T22:42:39.944Z,20.00
2018-09-19T22:48:44.557Z,19.90
2018-09-19T22:54:49.176Z,20.10
2018-09-19T23:00:54.106Z,20.10
2018-09-19T23:06:58.766Z,20.30
2018-09-19T23:13:03.370Z,20.30
2018-09-19T23:19:07.917Z,20.30
2018-09-19T23:25:12.904Z,20.30
2018-09-19T23:31:17.492Z,20.30
2018-09-19T23:37:22.083Z,20.30
2018-09-19T23:43:26.699Z,20.10
2018-09-19T23:49:31.249Z,20.00
2018-09-19T23:55:35.826Z,20.00
